createdAt,value
2018-05-26T00:00:30.568Z,63.11
2018-05-26T00:01:33.065Z,63.10
2018-05-26T00:02:35.576Z,63.14
2018-05-26T00:03:38.077Z,63.14
2018-05-26T00:04:40.584Z,63.12
2018-05-26T00:05:43.072Z,63.09
2018-05-26T00:06:45.580Z,63.03
2018-05-26T00:07:48.089Z,63.07
2018-05-26T00:08:50.561Z,63.08
2018-05-26T00:09:53.039Z,63.09
2018-05-26T00:10:55.537Z,63.12
2018-05-26T00:11:58.029Z,63.17
2018-05-26T00:13:00.602Z,63.18
2018-05-26T00:14:03.093Z,63.17
2018-05-26T00:15:05.595Z,63.16
2018-05-26T00:16:08.071Z,63.17
2018-05-26T00:17:10.587Z,63.23
2018-05-26T00:18:13.108Z,63.21
2018-05-26T00:19:15.609Z,63.21
2018-05-26T00:20:18.096Z,63.20
2018-05-26T00:21:20.589Z,63.20
2018-05-26T00:22:23.103Z,63.19
2018-05-26T00:23:25.601Z,63.22
2018-05-26T00:24:28.098Z,63.20
2018-05-26T00:25:30.582Z,63.26
2018-05-26T00:26:33.077Z,63.27
2018-05-26T00:27:35.591Z,63.28
2018-05-26T00:28:38.093Z,63.31
2018-05-26T00:29:40.597Z,63.30
2018-05-26T00:30:43.107Z,63.31
2018-05-26T00:31:45.582Z,63.31
2018-05-26T00:32:48.093Z,63.30
2018-05-26T00:33:50.583Z,63.31
2018-05-26T00:34:53.063Z,63.31
2018-05-26T00:35:55.538Z,63.27
2018-05-26T00:36:58.045Z,63.24
2018-05-26T00:38:00.541Z,63.24
2018-05-26T00:39:03.060Z,63.29
2018-05-26T00:40:05.571Z,63.34
2018-05-26T00:41:08.054Z,63.34
2018-05-26T00:42:10.538Z,63.34
2018-05-26T00:43:13.017Z,63.35
2018-05-26T00:44:15.500Z,63.33
2018-05-26T00:45:18.014Z,63.33
2018-05-26T00:46:20.487Z,63.30
2018-05-26T00:47:23.013Z,63.32
2018-05-26T00:48:25.527Z,63.32
2018-05-26T00:49:28.069Z,63.32
2018-05-26T00:50:30.558Z,63.34
2018-05-26T00:51:33.080Z,63.33
2018-05-26T00:52:35.576Z,63.29
2018-05-26T00:53:38.085Z,63.26
2018-05-26T00:54:40.592Z,63.25
2018-05-26T00:55:43.101Z,63.24
2018-05-26T00:56:45.605Z,63.24
2018-05-26T00:57:48.097Z,63.21
2018-05-26T00:58:50.608Z,63.22
2018-05-26T00:59:53.115Z,63.24
2018-05-26T01:00:55.628Z,63.26
2018-05-26T01:01:58.141Z,63.32
2018-05-26T01:03:00.630Z,63.36
2018-05-26T01:04:03.136Z,63.41
2018-05-26T01:05:05.610Z,63.44
2018-05-26T01:06:08.119Z,63.47
2018-05-26T01:07:10.613Z,63.48
2018-05-26T01:08:13.119Z,63.52
2018-05-26T01:09:15.590Z,63.59
2018-05-26T01:10:18.095Z,63.61
2018-05-26T01:11:20.600Z,63.73
2018-05-26T01:12:23.104Z,63.74
2018-05-26T01:13:25.593Z,63.80
2018-05-26T01:14:28.080Z,63.77
2018-05-26T01:15:30.558Z,63.76
2018-05-26T01:16:33.065Z,63.91
2018-05-26T01:17:35.538Z,63.95
2018-05-26T01:18:38.018Z,63.91
2018-05-26T01:19:40.573Z,63.89
2018-05-26T01:20:43.099Z,63.95
2018-05-26T01:21:45.574Z,63.92
2018-05-26T01:22:48.079Z,63.89
2018-05-26T01:23:50.570Z,63.87
2018-05-26T01:24:53.083Z,63.86
2018-05-26T01:25:55.604Z,63.82
2018-05-26T01:26:58.077Z,63.75
2018-05-26T01:28:00.564Z,63.83
2018-05-26T01:29:03.068Z,63.83
2018-05-26T01:30:05.565Z,63.85
2018-05-26T01:31:08.101Z,63.86
2018-05-26T01:32:10.607Z,63.87
2018-05-26T01:33:13.101Z,63.89
2018-05-26T01:34:15.600Z,63.87
2018-05-26T01:35:18.105Z,64.01
2018-05-26T01:36:20.596Z,64.00
2018-05-26T01:37:23.101Z,64.00
2018-05-26T01:38:25.605Z,63.95
2018-05-26T01:39:28.092Z,63.93
2018-05-26T01:40:30.606Z,63.93
2018-05-26T01:41:33.078Z,63.94
2018-05-26T01:42:35.573Z,63.93
2018-05-26T01:43:38.064Z,63.89
2018-05-26T01:44:40.565Z,63.87
2018-05-26T01:45:43.079Z,63.89
2018-05-26T01:46:45.587Z,63.90
2018-05-26T01:47:48.062Z,63.88
2018-05-26T01:48:50.563Z,63.87
2018-05-26T01:49:53.091Z,63.88
2018-05-26T01:50:55.589Z,63.89
2018-05-26T01:51:58.076Z,63.87
2018-05-26T01:53:00.554Z,63.87
2018-05-26T01:54:03.067Z,63.87
2018-05-26T01:55:05.589Z,63.86
2018-05-26T01:56:08.071Z,63.82
2018-05-26T01:57:10.558Z,63.87
2018-05-26T01:58:13.050Z,63.89
2018-05-26T01:59:15.548Z,63.91
2018-05-26T02:00:18.053Z,63.92
2018-05-26T02:01:20.563Z,63.93
2018-05-26T02:02:23.063Z,63.94
2018-05-26T02:03:25.557Z,63.92
2018-05-26T02:04:28.051Z,63.88
2018-05-26T02:05:30.541Z,63.87
2018-05-26T02:06:33.044Z,63.88
2018-05-26T02:07:35.537Z,63.85
2018-05-26T02:08:38.024Z,63.87
2018-05-26T02:09:40.539Z,63.87
2018-05-26T02:10:43.057Z,63.87
2018-05-26T02:11:45.549Z,63.95
2018-05-26T02:12:48.035Z,64.07
2018-05-26T02:13:50.542Z,64.06
2018-05-26T02:14:53.045Z,64.06
2018-05-26T02:15:55.516Z,64.11
2018-05-26T02:16:58.013Z,64.13
2018-05-26T02:18:00.486Z,64.06
2018-05-26T02:19:03.001Z,64.06
2018-05-26T02:20:05.493Z,64.05
2018-05-26T02:21:07.994Z,63.98
2018-05-26T02:22:10.471Z,64.00
2018-05-26T02:23:12.969Z,63.98
2018-05-26T02:24:15.468Z,63.93
2018-05-26T02:25:17.975Z,63.92
2018-05-26T02:26:20.461Z,63.88
2018-05-26T02:27:22.960Z,63.87
2018-05-26T02:28:25.435Z,63.86
2018-05-26T02:29:27.930Z,63.87
2018-05-26T02:30:30.409Z,63.90
2018-05-26T02:31:32.897Z,63.84
2018-05-26T02:32:35.397Z,63.85
2018-05-26T02:33:37.913Z,63.94
2018-05-26T02:34:40.455Z,63.88
2018-05-26T02:35:42.932Z,63.92
2018-05-26T02:36:45.435Z,64.07
2018-05-26T02:37:47.906Z,64.00
2018-05-26T02:38:50.401Z,63.97
2018-05-26T02:39:52.875Z,63.96
2018-05-26T02:40:55.387Z,63.95
2018-05-26T02:41:57.887Z,63.95
2018-05-26T02:43:00.377Z,63.95
2018-05-26T02:44:02.866Z,63.95
2018-05-26T02:45:05.382Z,63.94
2018-05-26T02:46:07.872Z,63.96
2018-05-26T02:47:10.363Z,63.88
2018-05-26T02:48:12.871Z,63.88
2018-05-26T02:49:15.389Z,63.89
2018-05-26T02:50:17.881Z,63.88
2018-05-26T02:51:20.350Z,63.97
2018-05-26T02:52:22.837Z,64.00
2018-05-26T02:53:25.364Z,63.95
2018-05-26T02:54:27.863Z,64.01
2018-05-26T02:55:30.375Z,63.95
2018-05-26T02:56:32.865Z,63.97
2018-05-26T02:57:35.349Z,63.99
2018-05-26T02:58:37.865Z,64.03
2018-05-26T02:59:40.357Z,64.00
2018-05-26T03:00:42.848Z,63.98
2018-05-26T03:01:45.849Z,63.98
2018-05-26T03:02:48.393Z,63.95
2018-05-26T03:03:50.663Z,63.96
2018-05-26T03:04:58.737Z,63.96
2018-05-26T03:06:06.837Z,64.07
2018-05-26T03:07:15.132Z,64.12
2018-05-26T03:08:23.634Z,64.11
2018-05-26T03:09:31.855Z,64.14
2018-05-26T03:10:40.026Z,64.17
2018-05-26T03:11:48.090Z,64.23
2018-05-26T03:12:56.297Z,64.24
2018-05-26T03:14:04.354Z,64.28
2018-05-26T03:15:06.288Z,64.33
2018-05-26T03:17:52.027Z,64.36
2018-05-26T03:18:54.523Z,64.36
2018-05-26T03:19:57.022Z,64.38
2018-05-26T03:20:59.512Z,64.42
2018-05-26T03:22:02.019Z,64.41
2018-05-26T03:23:04.515Z,64.39
2018-05-26T03:24:06.990Z,64.37
2018-05-26T03:25:09.495Z,64.36
2018-05-26T03:26:11.989Z,64.35
2018-05-26T03:27:14.488Z,64.36
2018-05-26T03:28:16.989Z,64.35
2018-05-26T03:29:19.497Z,64.37
2018-05-26T03:30:21.990Z,64.39
2018-05-26T03:31:24.509Z,64.36
2018-05-26T03:32:27.008Z,64.36
2018-05-26T03:33:29.505Z,64.39
2018-05-26T03:34:31.988Z,64.38
2018-05-26T03:35:34.477Z,64.38
2018-05-26T03:36:36.954Z,64.40
2018-05-26T03:37:39.491Z,64.40
2018-05-26T03:38:41.977Z,64.38
2018-05-26T03:39:44.586Z,64.38
2018-05-26T03:40:47.062Z,64.39
2018-05-26T03:41:49.535Z,64.40
2018-05-26T03:42:52.041Z,64.41
2018-05-26T03:43:54.528Z,64.41
2018-05-26T03:44:56.998Z,64.43
2018-05-26T03:45:59.490Z,64.43
2018-05-26T03:47:01.982Z,64.43
2018-05-26T03:48:04.485Z,64.46
2018-05-26T03:49:06.984Z,64.46
2018-05-26T03:50:09.469Z,64.48
2018-05-26T03:51:11.956Z,64.50
2018-05-26T03:52:14.513Z,64.50
2018-05-26T03:53:17.001Z,64.49
2018-05-26T03:54:19.471Z,64.52
2018-05-26T03:55:34.756Z,64.50
2018-05-26T03:56:49.125Z,64.75
2018-05-26T03:59:39.443Z,64.77
2018-05-26T04:00:41.937Z,64.79
2018-05-26T04:01:44.431Z,64.78
2018-05-26T04:02:46.899Z,64.76
2018-05-26T04:03:49.393Z,64.79
2018-05-26T04:04:51.871Z,64.76
2018-05-26T04:05:54.371Z,64.81
2018-05-26T04:06:56.877Z,64.74
2018-05-26T04:07:59.387Z,64.67
2018-05-26T04:09:01.881Z,64.68
2018-05-26T04:10:04.386Z,64.78
2018-05-26T04:11:06.932Z,64.73
2018-05-26T04:12:09.433Z,64.75
2018-05-26T04:13:11.921Z,64.78
2018-05-26T04:14:14.439Z,64.74
2018-05-26T04:15:16.918Z,64.75
2018-05-26T04:16:19.439Z,64.74
2018-05-26T04:17:21.947Z,64.76
2018-05-26T04:18:24.451Z,64.77
2018-05-26T04:19:26.926Z,64.76
2018-05-26T04:20:29.405Z,64.76
2018-05-26T04:21:31.901Z,64.79
2018-05-26T04:22:34.403Z,64.77
2018-05-26T04:23:36.908Z,64.82
2018-05-26T04:24:39.379Z,64.80
2018-05-26T04:25:41.873Z,64.78
2018-05-26T04:26:44.378Z,64.73
2018-05-26T04:27:46.873Z,64.73
2018-05-26T04:28:49.360Z,64.76
2018-05-26T04:29:51.845Z,64.76
2018-05-26T04:30:54.349Z,64.76
2018-05-26T04:31:56.857Z,64.84
2018-05-26T04:32:59.364Z,64.82
2018-05-26T04:34:01.861Z,64.85
2018-05-26T04:35:04.335Z,64.85
2018-05-26T04:36:06.866Z,65.02
2018-05-26T04:37:09.385Z,65.04
2018-05-26T04:38:11.885Z,65.01
2018-05-26T04:39:14.369Z,65.00
2018-05-26T04:40:16.857Z,65.07
2018-05-26T04:41:19.353Z,65.06
2018-05-26T04:42:21.869Z,65.07
2018-05-26T04:43:24.356Z,65.10
2018-05-26T04:44:26.865Z,65.09
2018-05-26T04:45:29.373Z,65.11
2018-05-26T04:46:31.869Z,65.17
2018-05-26T04:47:34.346Z,65.15
2018-05-26T04:48:36.846Z,65.16
2018-05-26T04:49:39.333Z,65.17
2018-05-26T04:50:41.833Z,65.16
2018-05-26T04:51:44.325Z,65.18
2018-05-26T04:52:46.841Z,65.20
2018-05-26T04:53:49.318Z,65.18
2018-05-26T04:54:51.805Z,65.33
2018-05-26T04:55:54.309Z,65.34
2018-05-26T04:56:56.820Z,65.32
2018-05-26T04:57:59.308Z,65.31
2018-05-26T04:59:01.801Z,65.31
2018-05-26T05:00:04.317Z,65.30
2018-05-26T05:01:06.809Z,65.32
2018-05-26T05:02:09.300Z,65.37
2018-05-26T05:03:11.797Z,65.37
2018-05-26T05:04:14.267Z,65.37
2018-05-26T05:05:16.769Z,65.37
2018-05-26T05:06:19.261Z,65.39
2018-05-26T05:07:21.740Z,65.40
2018-05-26T05:08:24.254Z,65.40
2018-05-26T05:09:26.754Z,65.42
2018-05-26T05:10:29.247Z,65.40
2018-05-26T05:11:31.758Z,65.38
2018-05-26T05:12:34.236Z,65.33
2018-05-26T05:13:36.735Z,65.32
2018-05-26T05:14:39.207Z,65.32
2018-05-26T05:15:41.781Z,65.31
2018-05-26T05:16:44.277Z,65.31
2018-05-26T05:17:46.765Z,65.30
2018-05-26T05:18:49.269Z,65.26
2018-05-26T05:19:51.769Z,65.27
2018-05-26T05:20:54.259Z,65.25
2018-05-26T05:21:56.755Z,65.26
2018-05-26T05:22:59.230Z,65.28
2018-05-26T05:24:01.725Z,65.28
2018-05-26T05:25:04.217Z,65.30
2018-05-26T05:26:06.699Z,65.28
2018-05-26T05:27:09.347Z,65.26
2018-05-26T05:28:11.834Z,65.31
2018-05-26T05:29:14.337Z,65.32
2018-05-26T05:30:16.832Z,65.34
2018-05-26T05:31:19.308Z,65.34
2018-05-26T05:32:21.792Z,65.30
2018-05-26T05:33:24.262Z,65.39
2018-05-26T05:34:26.769Z,65.42
2018-05-26T05:35:29.263Z,65.47
2018-05-26T05:36:31.775Z,65.51
2018-05-26T05:37:34.303Z,65.50
2018-05-26T05:38:36.875Z,65.50
2018-05-26T05:39:39.387Z,65.55
2018-05-26T05:40:41.937Z,65.60
2018-05-26T05:41:44.441Z,65.58
2018-05-26T05:42:46.932Z,65.59
2018-05-26T05:43:49.423Z,65.57
2018-05-26T05:44:51.894Z,65.55
2018-05-26T05:45:54.399Z,65.58
2018-05-26T05:46:56.867Z,65.58
2018-05-26T05:47:59.345Z,65.57
2018-05-26T05:49:01.838Z,65.57
2018-05-26T05:50:04.336Z,65.61
2018-05-26T05:51:06.845Z,65.60
2018-05-26T05:52:09.355Z,65.60
2018-05-26T05:53:11.859Z,65.61
2018-05-26T05:54:14.369Z,65.62
2018-05-26T05:55:16.875Z,65.69
2018-05-26T05:56:19.417Z,65.72
2018-05-26T05:57:21.879Z,65.70
2018-05-26T05:58:24.362Z,65.72
2018-05-26T05:59:26.855Z,65.83
2018-05-26T06:00:29.340Z,65.76
2018-05-26T06:01:31.815Z,65.83
2018-05-26T06:02:34.337Z,65.85
2018-05-26T06:03:36.854Z,65.97
2018-05-26T06:04:39.367Z,65.92
2018-05-26T06:05:41.871Z,65.87
2018-05-26T06:06:44.360Z,65.71
2018-05-26T06:07:47.030Z,65.28
2018-05-26T06:08:49.524Z,64.40
2018-05-26T06:09:52.028Z,63.06
2018-05-26T06:10:54.535Z,62.40
2018-05-26T06:11:57.014Z,61.79
2018-05-26T06:12:59.525Z,62.07
2018-05-26T06:14:02.049Z,62.00
2018-05-26T06:15:04.558Z,61.47
2018-05-26T06:16:07.046Z,61.15
2018-05-26T06:17:09.546Z,61.48
2018-05-26T06:18:12.061Z,61.19
2018-05-26T06:19:14.556Z,60.69
2018-05-26T06:20:17.035Z,60.61
2018-05-26T06:21:19.517Z,60.45
2018-05-26T06:22:22.030Z,60.42
2018-05-26T06:23:24.544Z,60.46
2018-05-26T06:24:27.028Z,60.32
2018-05-26T06:25:29.535Z,60.16
2018-05-26T06:26:32.030Z,60.12
2018-05-26T06:27:34.541Z,60.05
2018-05-26T06:28:37.071Z,60.10
2018-05-26T06:29:39.607Z,60.01
2018-05-26T06:30:42.116Z,59.87
2018-05-26T06:31:44.623Z,59.88
2018-05-26T06:32:47.195Z,59.75
2018-05-26T06:33:49.685Z,59.68
2018-05-26T06:34:52.201Z,59.60
2018-05-26T06:35:54.783Z,59.50
2018-05-26T06:36:57.278Z,59.54
2018-05-26T06:37:59.791Z,59.58
2018-05-26T06:39:02.302Z,59.34
2018-05-26T06:40:04.822Z,59.33
2018-05-26T06:41:07.311Z,59.26
2018-05-26T06:42:09.804Z,59.35
2018-05-26T06:43:12.309Z,59.44
2018-05-26T06:44:14.779Z,59.44
2018-05-26T06:45:17.294Z,59.45
2018-05-26T06:46:19.789Z,59.47
2018-05-26T06:47:22.292Z,59.55
2018-05-26T06:48:24.803Z,59.52
2018-05-26T06:49:27.293Z,59.58
2018-05-26T06:50:29.788Z,59.52
2018-05-26T06:51:32.267Z,59.55
2018-05-26T06:52:34.789Z,59.69
2018-05-26T06:53:37.285Z,59.76
2018-05-26T06:54:39.795Z,59.74
2018-05-26T06:55:42.270Z,59.77
2018-05-26T06:56:44.761Z,59.87
2018-05-26T06:57:47.254Z,59.91
2018-05-26T06:58:49.730Z,59.98
2018-05-26T06:59:52.233Z,59.98
2018-05-26T07:00:54.720Z,60.19
2018-05-26T07:01:57.232Z,60.21
2018-05-26T07:02:59.721Z,60.02
2018-05-26T07:04:02.229Z,60.00
2018-05-26T07:05:04.717Z,60.05
2018-05-26T07:06:07.192Z,60.05
2018-05-26T07:07:09.705Z,60.15
2018-05-26T07:08:12.217Z,60.13
2018-05-26T07:09:14.714Z,60.15
2018-05-26T07:10:17.267Z,60.13
2018-05-26T07:11:19.757Z,59.98
2018-05-26T07:12:22.242Z,60.10
2018-05-26T07:13:24.714Z,60.29
2018-05-26T07:14:27.209Z,60.16
2018-05-26T07:15:29.721Z,60.19
2018-05-26T07:16:32.228Z,60.17
2018-05-26T07:17:34.752Z,60.07
2018-05-26T07:18:37.255Z,59.96
2018-05-26T07:19:39.753Z,59.95
2018-05-26T07:20:42.267Z,60.03
2018-05-26T07:21:44.759Z,59.98
2018-05-26T07:22:47.260Z,59.79
2018-05-26T07:23:49.775Z,59.93
2018-05-26T07:24:52.284Z,59.88
2018-05-26T07:25:54.792Z,59.73
2018-05-26T07:26:57.289Z,59.72
2018-05-26T07:27:59.796Z,59.73
2018-05-26T07:29:02.278Z,59.92
2018-05-26T07:30:04.766Z,59.78
2018-05-26T07:31:07.273Z,59.46
2018-05-26T07:32:09.781Z,59.52
2018-05-26T07:33:12.273Z,59.56
2018-05-26T07:34:14.768Z,59.58
2018-05-26T07:35:17.282Z,59.59
2018-05-26T07:36:19.798Z,59.65
2018-05-26T07:37:23.158Z,59.69
2018-05-26T07:38:25.648Z,59.64
2018-05-26T07:39:28.186Z,59.61
2018-05-26T07:40:30.707Z,59.68
2018-05-26T07:41:33.208Z,59.89
2018-05-26T07:42:35.712Z,59.85
2018-05-26T07:43:38.224Z,59.73
2018-05-26T07:44:40.721Z,59.68
2018-05-26T07:45:43.232Z,59.71
2018-05-26T07:46:45.745Z,59.73
2018-05-26T07:47:48.229Z,59.75
2018-05-26T07:48:50.708Z,59.78
2018-05-26T07:49:53.193Z,59.80
2018-05-26T07:50:55.711Z,59.82
2018-05-26T07:51:58.205Z,59.83
2018-05-26T07:53:00.705Z,59.84
2018-05-26T07:54:03.203Z,59.85
2018-05-26T07:55:05.700Z,59.87
2018-05-26T07:56:08.211Z,59.88
2018-05-26T07:57:10.713Z,59.87
2018-05-26T07:58:13.210Z,59.89
2018-05-26T07:59:15.697Z,59.90
2018-05-26T08:00:18.200Z,59.91
2018-05-26T08:01:20.683Z,59.92
2018-05-26T08:02:23.189Z,59.93
2018-05-26T08:03:25.770Z,59.93
2018-05-26T08:04:28.247Z,59.94
2018-05-26T08:05:30.813Z,59.95
2018-05-26T08:06:33.291Z,59.96
2018-05-26T08:07:35.770Z,59.97
2018-05-26T08:08:38.269Z,59.97
2018-05-26T08:09:40.760Z,59.98
2018-05-26T08:10:43.277Z,59.98
2018-05-26T08:11:45.756Z,60.00
2018-05-26T08:12:48.245Z,60.00
2018-05-26T08:13:50.737Z,60.00
2018-05-26T08:14:53.234Z,60.01
2018-05-26T08:15:55.732Z,60.03
2018-05-26T08:16:58.218Z,60.03
2018-05-26T08:18:00.699Z,60.03
2018-05-26T08:19:03.210Z,60.04
2018-05-26T08:20:05.729Z,60.06
2018-05-26T08:21:08.245Z,60.07
2018-05-26T08:22:10.714Z,60.07
2018-05-26T08:23:13.223Z,60.07
2018-05-26T08:24:15.727Z,60.08
2018-05-26T08:25:18.233Z,60.07
2018-05-26T08:26:20.753Z,60.08
2018-05-26T08:27:23.269Z,60.09
2018-05-26T08:28:25.768Z,60.10
2018-05-26T08:29:28.260Z,60.10
2018-05-26T08:30:30.784Z,60.10
2018-05-26T08:31:33.359Z,60.11
2018-05-26T08:32:35.855Z,60.11
2018-05-26T08:33:38.346Z,60.11
2018-05-26T08:34:40.840Z,60.11
2018-05-26T08:35:43.352Z,60.12
2018-05-26T08:36:45.845Z,60.12
2018-05-26T08:37:48.348Z,60.12
2018-05-26T08:38:50.848Z,60.14
2018-05-26T08:39:53.337Z,60.14
2018-05-26T08:40:55.873Z,60.14
2018-05-26T08:41:58.378Z,60.15
2018-05-26T08:43:00.883Z,60.15
2018-05-26T08:44:03.383Z,60.14
2018-05-26T08:45:05.877Z,60.14
2018-05-26T08:46:08.381Z,60.14
2018-05-26T08:47:10.923Z,60.14
2018-05-26T08:48:13.400Z,60.15
2018-05-26T08:49:15.896Z,60.16
2018-05-26T08:50:18.389Z,60.16
2018-05-26T08:51:20.904Z,60.16
2018-05-26T08:52:23.415Z,60.15
2018-05-26T08:53:25.939Z,60.16
2018-05-26T08:54:28.433Z,60.17
2018-05-26T08:55:30.925Z,60.16
2018-05-26T08:56:33.450Z,60.17
2018-05-26T08:57:35.983Z,60.17
2018-05-26T08:58:38.478Z,60.17
2018-05-26T08:59:40.970Z,60.17
2018-05-26T09:00:43.443Z,60.17
2018-05-26T09:01:45.935Z,60.17
2018-05-26T09:02:48.410Z,60.17
2018-05-26T09:03:50.918Z,60.17
2018-05-26T09:04:53.429Z,60.18
2018-05-26T09:05:55.961Z,60.18
2018-05-26T09:06:58.472Z,60.18
2018-05-26T09:08:00.962Z,60.18
2018-05-26T09:09:03.457Z,60.18
2018-05-26T09:10:05.947Z,60.17
2018-05-26T09:11:08.445Z,60.18
2018-05-26T09:12:10.939Z,60.18
2018-05-26T09:13:13.433Z,60.18
2018-05-26T09:14:15.937Z,60.17
2018-05-26T09:15:18.415Z,60.17
2018-05-26T09:16:20.934Z,60.35
2018-05-26T09:17:23.438Z,60.49
2018-05-26T09:18:25.938Z,60.47
2018-05-26T09:19:28.442Z,60.44
2018-05-26T09:20:30.945Z,60.43
2018-05-26T09:21:33.431Z,60.48
2018-05-26T09:22:36.269Z,60.51
2018-05-26T09:23:38.777Z,60.48
2018-05-26T09:24:41.273Z,60.47
2018-05-26T09:25:43.844Z,60.46
2018-05-26T09:26:46.371Z,60.45
2018-05-26T09:27:48.888Z,60.47
2018-05-26T09:28:51.377Z,60.46
2018-05-26T09:29:53.865Z,60.46
2018-05-26T09:30:56.347Z,60.46
2018-05-26T09:31:58.826Z,60.46
2018-05-26T09:33:01.325Z,60.45
2018-05-26T09:34:03.846Z,60.42
2018-05-26T09:35:06.333Z,60.41
2018-05-26T09:36:08.839Z,60.39
2018-05-26T09:37:11.377Z,60.38
2018-05-26T09:38:13.893Z,60.37
2018-05-26T09:39:16.501Z,60.34
2018-05-26T09:40:19.999Z,60.36
2018-05-26T09:41:22.537Z,60.35
2018-05-26T09:42:25.053Z,60.35
2018-05-26T09:43:27.569Z,60.31
2018-05-26T09:44:30.075Z,60.29
2018-05-26T09:45:32.592Z,60.30
2018-05-26T09:46:35.092Z,60.32
2018-05-26T09:47:37.636Z,60.32
2018-05-26T09:48:40.133Z,60.32
2018-05-26T09:49:42.620Z,60.29
2018-05-26T09:50:45.123Z,60.28
2018-05-26T09:51:47.643Z,60.27
2018-05-26T09:52:50.128Z,60.26
2018-05-26T09:53:52.652Z,60.26
2018-05-26T09:54:55.160Z,60.25
2018-05-26T09:55:57.718Z,60.24
2018-05-26T09:57:00.226Z,60.21
2018-05-26T09:58:02.725Z,60.20
2018-05-26T09:59:05.244Z,60.18
2018-05-26T10:00:07.727Z,60.17
2018-05-26T10:01:10.221Z,60.15
2018-05-26T10:02:12.738Z,60.12
2018-05-26T10:03:15.232Z,60.10
2018-05-26T10:04:17.759Z,60.08
2018-05-26T10:05:20.227Z,60.07
2018-05-26T10:06:22.707Z,60.05
2018-05-26T10:07:25.239Z,60.03
2018-05-26T10:08:27.726Z,60.01
2018-05-26T10:09:30.210Z,59.98
2018-05-26T10:10:32.691Z,59.99
2018-05-26T10:11:35.171Z,59.97
2018-05-26T10:12:37.688Z,59.95
2018-05-26T10:13:40.179Z,59.94
2018-05-26T10:14:42.680Z,59.93
2018-05-26T10:15:45.186Z,59.91
2018-05-26T10:16:47.693Z,59.89
2018-05-26T10:17:50.232Z,59.87
2018-05-26T10:18:52.773Z,59.84
2018-05-26T10:19:55.322Z,59.83
2018-05-26T10:20:57.793Z,59.80
2018-05-26T10:22:00.305Z,59.77
2018-05-26T10:23:02.815Z,59.73
2018-05-26T10:24:05.317Z,59.67
2018-05-26T10:25:07.824Z,59.56
2018-05-26T10:26:10.327Z,59.40
2018-05-26T10:27:12.829Z,59.30
2018-05-26T10:28:15.327Z,59.24
2018-05-26T10:29:17.825Z,59.18
2018-05-26T10:30:20.409Z,59.14
2018-05-26T10:31:22.908Z,59.15
2018-05-26T10:32:25.427Z,59.13
2018-05-26T10:33:27.992Z,59.12
2018-05-26T10:34:30.503Z,59.06
2018-05-26T10:35:33.009Z,59.04
2018-05-26T10:36:35.508Z,59.00
2018-05-26T10:37:38.005Z,58.97
2018-05-26T10:38:40.549Z,59.02
2018-05-26T10:39:43.039Z,59.02
2018-05-26T10:40:45.533Z,59.01
2018-05-26T10:41:48.104Z,59.06
2018-05-26T10:42:50.597Z,59.07
2018-05-26T10:43:53.121Z,59.04
2018-05-26T10:44:55.616Z,58.96
2018-05-26T10:46:09.996Z,58.94
2018-05-26T10:47:12.525Z,58.91
2018-05-26T10:48:15.060Z,58.88
2018-05-26T10:49:17.604Z,58.85
2018-05-26T10:50:20.117Z,58.86
2018-05-26T10:51:22.613Z,58.83
2018-05-26T10:52:25.128Z,58.83
2018-05-26T10:53:27.622Z,58.82
2018-05-26T10:54:30.150Z,58.81
2018-05-26T10:55:32.631Z,58.83
2018-05-26T10:56:35.110Z,58.83
2018-05-26T10:57:37.605Z,58.81
2018-05-26T10:58:40.115Z,58.83
2018-05-26T10:59:42.629Z,58.84
2018-05-26T11:00:45.124Z,58.85
2018-05-26T11:01:47.661Z,58.90
2018-05-26T11:02:50.163Z,58.89
2018-05-26T11:03:52.663Z,58.88
2018-05-26T11:04:55.201Z,58.88
2018-05-26T11:05:57.697Z,58.89
2018-05-26T11:07:00.197Z,58.90
2018-05-26T11:08:02.716Z,58.91
2018-05-26T11:09:05.243Z,58.92
2018-05-26T11:10:07.776Z,58.92
2018-05-26T11:11:10.262Z,58.87
2018-05-26T11:12:12.749Z,58.86
2018-05-26T11:13:15.265Z,58.84
2018-05-26T11:14:17.799Z,58.81
2018-05-26T11:15:20.329Z,58.79
2018-05-26T11:16:22.936Z,58.77
2018-05-26T11:17:25.334Z,58.76
2018-05-26T11:18:27.829Z,58.79
2018-05-26T11:19:30.355Z,58.80
2018-05-26T11:20:32.857Z,58.82
2018-05-26T11:21:35.353Z,58.81
2018-05-26T11:22:37.860Z,58.81
2018-05-26T11:23:40.375Z,58.73
2018-05-26T11:24:42.939Z,58.59
2018-05-26T11:25:45.428Z,58.57
2018-05-26T11:26:47.936Z,58.46
2018-05-26T11:27:50.441Z,58.43
2018-05-26T11:28:52.962Z,58.33
2018-05-26T11:29:55.468Z,58.32
2018-05-26T11:30:57.962Z,58.36
2018-05-26T11:32:00.477Z,58.30
2018-05-26T11:33:02.962Z,58.24
2018-05-26T11:34:05.455Z,58.24
2018-05-26T11:35:07.953Z,58.23
2018-05-26T11:36:10.473Z,58.24
2018-05-26T11:37:12.995Z,58.29
2018-05-26T11:38:15.507Z,58.28
2018-05-26T11:39:18.039Z,58.24
2018-05-26T11:40:20.523Z,58.22
2018-05-26T11:41:23.011Z,58.13
2018-05-26T11:42:25.508Z,58.08
2018-05-26T11:43:28.005Z,58.07
2018-05-26T11:44:30.517Z,58.06
2018-05-26T11:45:33.028Z,58.06
2018-05-26T11:46:35.528Z,57.97
2018-05-26T11:47:38.045Z,57.94
2018-05-26T11:48:40.561Z,57.94
2018-05-26T11:49:43.064Z,57.93
2018-05-26T11:50:45.568Z,57.94
2018-05-26T11:51:48.067Z,57.96
2018-05-26T11:52:50.557Z,57.99
2018-05-26T11:53:53.054Z,58.01
2018-05-26T11:54:55.535Z,58.07
2018-05-26T11:55:58.052Z,58.13
2018-05-26T11:57:00.580Z,58.16
2018-05-26T11:58:03.087Z,58.21
2018-05-26T11:59:05.583Z,58.47
2018-05-26T12:00:08.081Z,58.57
2018-05-26T12:01:10.577Z,58.77
2018-05-26T12:02:13.088Z,58.82
2018-05-26T12:03:15.587Z,58.87
2018-05-26T12:04:18.106Z,58.86
2018-05-26T12:05:20.598Z,58.71
2018-05-26T12:06:23.097Z,58.66
2018-05-26T12:07:25.609Z,58.37
2018-05-26T12:08:28.107Z,58.14
2018-05-26T12:09:30.606Z,58.12
2018-05-26T12:10:33.105Z,58.21
2018-05-26T12:11:35.675Z,58.20
2018-05-26T12:12:38.191Z,58.26
2018-05-26T12:13:40.690Z,58.50
2018-05-26T12:14:43.204Z,58.62
2018-05-26T12:15:45.720Z,58.61
2018-05-26T12:16:48.253Z,58.61
2018-05-26T12:17:50.866Z,58.62
2018-05-26T12:18:53.390Z,58.55
2018-05-26T12:19:55.879Z,58.51
2018-05-26T12:20:58.368Z,58.82
2018-05-26T12:22:00.873Z,59.26
2018-05-26T12:23:03.399Z,59.83
2018-05-26T12:24:05.907Z,60.38
2018-05-26T12:25:08.395Z,60.39
2018-05-26T12:26:10.881Z,60.52
2018-05-26T12:27:13.407Z,60.50
2018-05-26T12:28:15.917Z,60.52
2018-05-26T12:29:18.398Z,60.59
2018-05-26T12:30:20.943Z,60.61
2018-05-26T12:31:23.422Z,60.45
2018-05-26T12:32:25.930Z,60.33
2018-05-26T12:33:28.415Z,60.29
2018-05-26T12:34:30.897Z,60.28
2018-05-26T12:35:33.501Z,60.28
2018-05-26T12:36:35.991Z,60.30
2018-05-26T12:37:38.489Z,60.35
2018-05-26T12:38:40.993Z,60.52
2018-05-26T12:39:43.482Z,60.56
2018-05-26T12:40:45.999Z,60.59
2018-05-26T12:41:48.486Z,60.98
2018-05-26T12:42:50.983Z,61.39
2018-05-26T12:43:53.493Z,61.81
2018-05-26T12:44:55.997Z,61.97
2018-05-26T12:45:58.497Z,62.03
2018-05-26T12:47:01.037Z,61.92
2018-05-26T12:48:03.585Z,61.69
2018-05-26T12:49:06.162Z,61.64
2018-05-26T12:50:08.689Z,61.60
2018-05-26T12:51:11.227Z,61.52
2018-05-26T12:52:15.850Z,61.50
2018-05-26T12:53:18.459Z,61.46
2018-05-26T12:54:20.968Z,61.40
2018-05-26T12:55:23.465Z,61.24
2018-05-26T12:56:26.159Z,61.14
2018-05-26T12:57:28.687Z,61.10
2018-05-26T12:58:31.771Z,60.99
2018-05-26T12:59:34.274Z,61.01
2018-05-26T13:00:36.792Z,60.97
2018-05-26T13:01:39.327Z,60.88
2018-05-26T13:02:41.830Z,60.86
2018-05-26T13:03:44.329Z,60.86
2018-05-26T13:04:46.830Z,60.89
2018-05-26T13:05:49.344Z,60.88
2018-05-26T13:06:51.853Z,61.09
2018-05-26T13:07:54.345Z,61.26
2018-05-26T13:08:56.856Z,61.21
2018-05-26T13:09:59.353Z,61.19
2018-05-26T13:11:01.853Z,61.16
2018-05-26T13:12:04.368Z,60.99
2018-05-26T13:13:06.865Z,61.02
2018-05-26T13:14:09.381Z,61.03
2018-05-26T13:15:11.912Z,61.03
2018-05-26T13:16:14.418Z,61.02
2018-05-26T13:17:16.918Z,61.01
2018-05-26T13:18:19.399Z,61.02
2018-05-26T13:19:22.522Z,61.02
2018-05-26T13:20:25.029Z,61.03
2018-05-26T13:21:27.558Z,61.02
2018-05-26T13:22:30.078Z,61.00
2018-05-26T13:23:33.551Z,60.98
2018-05-26T13:24:36.194Z,60.97
2018-05-26T13:25:38.709Z,60.97
2018-05-26T13:26:41.688Z,60.96
2018-05-26T13:27:46.524Z,60.95
2018-05-26T13:28:49.037Z,60.94
2018-05-26T13:29:51.528Z,60.92